createdAt,value
2019-02-19T00:01:12.670Z,97.30
2019-02-19T00:03:42.443Z,98.20
2019-02-19T00:06:12.176Z,99.40
2019-02-19T00:08:42.133Z,99.10
2019-02-19T00:11:11.848Z,99.50
2019-02-19T00:13:41.919Z,99.40
2019-02-19T00:16:11.662Z,98.80
2019-02-19T00:18:41.332Z,98.10
2019-02-19T00:21:11.014Z,98.90
2019-02-19T00:23:40.914Z,99.80
2019-02-19T00:26:17.917Z,99.70
2019-02-19T00:28:48.741Z,99.80
2019-02-19T00:31:18.443Z,99.90
2019-02-19T00:33:48.118Z,99.90
2019-02-19T00:36:17.848Z,99.90
2019-02-19T00:38:47.649Z,99.90
2019-02-19T00:41:17.367Z,99.90
2019-02-19T00:43:46.977Z,99.90
2019-02-19T00:46:16.783Z,99.90
2019-02-19T00:48:46.491Z,99.90
2019-02-19T00:51:16.196Z,99.90
2019-02-19T00:53:45.877Z,99.90
2019-02-19T00:56:15.587Z,99.90
2019-02-19T00:58:45.246Z,99.90
2019-02-19T01:01:15.120Z,99.90
2019-02-19T01:03:44.805Z,99.90
2019-02-19T01:06:14.583Z,99.90
2019-02-19T01:08:44.294Z,99.90
2019-02-19T01:11:14.523Z,99.90
2019-02-19T01:13:44.310Z,99.90
2019-02-19T01:16:14.130Z,99.90
2019-02-19T01:18:43.862Z,99.90
2019-02-19T01:21:13.609Z,99.90
2019-02-19T01:23:43.476Z,99.90
2019-02-19T01:26:13.280Z,99.90
2019-02-19T01:28:43.008Z,99.90
2019-02-19T01:31:12.881Z,99.90
2019-02-19T01:33:42.604Z,99.90
2019-02-19T01:36:12.314Z,99.90
2019-02-19T01:38:42.054Z,99.90
2019-02-19T01:41:11.843Z,99.90
2019-02-19T01:43:41.513Z,99.90
2019-02-19T01:46:11.348Z,99.90
2019-02-19T01:48:41.132Z,99.90
2019-02-19T01:51:10.858Z,99.90
2019-02-19T01:53:40.922Z,99.90
2019-02-19T01:56:10.582Z,99.90
2019-02-19T01:58:40.311Z,99.90
2019-02-19T02:01:10.032Z,99.90
2019-02-19T02:03:39.743Z,99.90
2019-02-19T02:06:09.372Z,99.70
2019-02-19T02:08:39.083Z,98.90
2019-02-19T02:11:08.800Z,98.90
2019-02-19T02:13:38.475Z,99.20
2019-02-19T02:16:09.903Z,99.90
2019-02-19T02:18:39.609Z,99.00
2019-02-19T02:21:09.346Z,99.00
2019-02-19T02:23:39.032Z,99.30
2019-02-19T02:26:08.716Z,99.90
2019-02-19T02:28:38.395Z,99.90
2019-02-19T02:31:08.040Z,99.90
2019-02-19T02:33:37.748Z,99.90
2019-02-19T02:36:07.431Z,99.90
2019-02-19T02:38:37.186Z,99.90
2019-02-19T02:41:06.919Z,99.90
2019-02-19T02:43:36.607Z,99.90
2019-02-19T02:46:06.294Z,99.90
2019-02-19T02:48:35.981Z,99.90
2019-02-19T02:51:05.689Z,99.90
2019-02-19T02:53:35.598Z,99.90
2019-02-19T02:56:05.312Z,99.90
2019-02-19T02:58:35.033Z,99.90
2019-02-19T03:01:04.733Z,99.90
2019-02-19T03:03:34.430Z,99.90
2019-02-19T03:06:18.896Z,99.90
2019-02-19T03:08:48.694Z,99.90
2019-02-19T03:11:18.406Z,99.90
2019-02-19T03:13:48.112Z,99.90
2019-02-19T03:16:17.817Z,99.90
2019-02-19T03:18:47.490Z,99.90
2019-02-19T03:21:17.148Z,99.90
2019-02-19T03:23:46.911Z,99.90
2019-02-19T03:26:16.571Z,99.90
2019-02-19T03:28:46.251Z,99.90
2019-02-19T03:31:15.912Z,99.90
2019-02-19T03:33:45.744Z,99.90
2019-02-19T03:36:15.380Z,99.90
2019-02-19T03:38:45.069Z,99.90
2019-02-19T03:41:14.802Z,99.90
2019-02-19T03:43:44.476Z,99.90
2019-02-19T03:46:14.238Z,99.90
2019-02-19T03:48:43.966Z,99.90
2019-02-19T03:51:13.617Z,99.90
2019-02-19T03:53:43.379Z,99.90
2019-02-19T03:56:13.122Z,99.90
2019-02-19T03:58:42.905Z,99.90
2019-02-19T04:01:12.735Z,99.90
2019-02-19T04:03:42.362Z,99.90
2019-02-19T04:06:12.061Z,99.90
2019-02-19T04:08:41.763Z,99.90
2019-02-19T04:11:11.491Z,99.90
2019-02-19T04:13:41.142Z,99.90
2019-02-19T04:16:10.831Z,99.90
2019-02-19T04:18:40.521Z,99.90
2019-02-19T04:21:10.224Z,99.90
2019-02-19T04:23:39.902Z,99.90
2019-02-19T04:26:09.637Z,99.90
2019-02-19T04:28:39.326Z,99.90
2019-02-19T04:31:09.025Z,99.90
2019-02-19T04:33:38.691Z,99.90
2019-02-19T04:36:08.413Z,99.90
2019-02-19T04:38:38.107Z,99.90
2019-02-19T04:41:07.856Z,99.90
2019-02-19T04:43:37.523Z,99.90
2019-02-19T04:46:07.284Z,99.90
2019-02-19T04:48:36.995Z,99.90
2019-02-19T04:51:06.677Z,99.90
2019-02-19T04:53:36.342Z,99.90
2019-02-19T04:56:06.056Z,99.90
2019-02-19T04:58:35.885Z,99.90
2019-02-19T05:01:05.653Z,99.90
2019-02-19T05:03:35.359Z,99.90
2019-02-19T05:06:05.030Z,99.90
2019-02-19T05:08:34.698Z,99.90
2019-02-19T05:11:04.542Z,99.90
2019-02-19T05:13:34.219Z,99.90
2019-02-19T05:16:04.016Z,99.90
2019-02-19T05:18:33.630Z,99.90
2019-02-19T05:21:03.327Z,99.90
2019-02-19T05:23:33.007Z,99.90
2019-02-19T05:26:02.879Z,99.90
2019-02-19T05:28:32.535Z,99.90
2019-02-19T05:31:02.321Z,99.90
2019-02-19T05:33:31.970Z,99.90
2019-02-19T05:36:01.700Z,99.90
2019-02-19T05:38:31.347Z,99.90
2019-02-19T05:41:01.101Z,99.90
2019-02-19T05:43:30.755Z,99.90
2019-02-19T05:46:00.474Z,99.90
2019-02-19T05:48:30.224Z,99.90
2019-02-19T05:51:00.047Z,99.90
2019-02-19T05:53:29.774Z,99.90
2019-02-19T05:55:59.446Z,99.90
2019-02-19T05:58:29.532Z,99.90
2019-02-19T06:00:59.287Z,99.90
2019-02-19T06:03:28.996Z,99.90
2019-02-19T06:05:58.759Z,99.90
2019-02-19T06:08:29.717Z,99.90
2019-02-19T06:10:59.589Z,99.90
2019-02-19T06:13:29.524Z,99.90
2019-02-19T06:15:59.250Z,99.90
2019-02-19T06:18:29.136Z,99.90
2019-02-19T06:20:58.811Z,99.90
2019-02-19T06:23:28.527Z,99.90
2019-02-19T06:25:58.184Z,99.90
2019-02-19T06:28:27.873Z,99.90
2019-02-19T06:30:57.570Z,99.90
2019-02-19T06:33:27.317Z,99.90
2019-02-19T06:35:56.956Z,99.90
2019-02-19T06:38:26.659Z,99.90
2019-02-19T06:40:56.286Z,99.90
2019-02-19T06:43:26.099Z,99.90
2019-02-19T06:45:55.772Z,99.90
2019-02-19T06:48:25.489Z,99.90
2019-02-19T06:50:55.193Z,99.90
2019-02-19T06:53:24.924Z,99.90
2019-02-19T06:55:54.591Z,99.90
2019-02-19T06:58:24.393Z,99.90
2019-02-19T07:00:54.223Z,99.90
2019-02-19T07:03:49.073Z,99.90
2019-02-19T07:06:18.762Z,99.60
2019-02-19T07:08:48.455Z,82.20
2019-02-19T07:11:18.161Z,73.80
2019-02-19T07:13:47.956Z,64.40
2019-02-19T07:16:17.610Z,59.00
2019-02-19T07:18:47.308Z,50.20
2019-02-19T07:21:17.241Z,48.30
2019-02-19T07:23:50.153Z,47.50
2019-02-19T07:26:19.784Z,42.10
2019-02-19T07:28:49.526Z,35.30
2019-02-19T07:31:19.254Z,30.40
2019-02-19T07:33:48.938Z,27.00
2019-02-19T07:36:18.623Z,24.30
2019-02-19T07:38:48.314Z,22.80
2019-02-19T07:41:18.018Z,21.30
2019-02-19T07:43:47.865Z,19.80
2019-02-19T07:46:17.606Z,19.40
2019-02-19T07:48:47.314Z,18.60
2019-02-19T07:51:17.115Z,17.90
2019-02-19T07:53:46.821Z,18.40
2019-02-19T07:56:16.428Z,16.70
2019-02-19T07:58:46.135Z,15.20
2019-02-19T08:01:17.298Z,14.40
2019-02-19T08:03:46.945Z,13.50
2019-02-19T08:06:16.620Z,13.00
2019-02-19T08:08:46.363Z,12.80
2019-02-19T08:11:16.099Z,12.10
2019-02-19T08:13:45.777Z,11.70
2019-02-19T08:16:19.054Z,12.10
2019-02-19T08:18:48.867Z,11.40
2019-02-19T08:21:18.553Z,11.70
2019-02-19T08:23:48.226Z,11.40
2019-02-19T08:26:17.899Z,11.50
2019-02-19T08:28:47.535Z,10.90
2019-02-19T08:31:17.264Z,10.70
2019-02-19T08:33:46.941Z,11.80
2019-02-19T08:36:16.617Z,13.80
2019-02-19T08:38:46.252Z,13.50
2019-02-19T08:41:15.942Z,12.10
2019-02-19T08:43:45.635Z,11.00
2019-02-19T08:46:15.327Z,10.80
2019-02-19T08:48:44.974Z,10.50
2019-02-19T08:51:14.652Z,10.30
2019-02-19T08:53:44.357Z,10.00
2019-02-19T08:56:14.075Z,10.50
2019-02-19T08:58:43.764Z,10.70
2019-02-19T09:01:13.474Z,12.20
2019-02-19T09:03:43.078Z,13.90
2019-02-19T09:06:12.771Z,13.10
2019-02-19T09:08:42.396Z,13.80
2019-02-19T09:11:12.065Z,13.50
2019-02-19T09:13:41.735Z,14.00
2019-02-19T09:16:11.470Z,14.10
2019-02-19T09:18:41.113Z,14.70
2019-02-19T09:21:10.785Z,15.20
2019-02-19T09:23:42.250Z,15.70
2019-02-19T09:26:11.850Z,18.30
2019-02-19T09:28:41.521Z,19.60
2019-02-19T09:31:11.190Z,22.70
2019-02-19T09:33:40.825Z,25.10
2019-02-19T09:36:10.517Z,26.90
2019-02-19T09:38:40.196Z,28.60
2019-02-19T09:41:09.899Z,31.10
2019-02-19T09:43:39.592Z,31.10
2019-02-19T09:46:09.308Z,30.40
2019-02-19T09:48:38.999Z,30.00
2019-02-19T09:51:08.692Z,32.20
2019-02-19T09:53:38.327Z,32.40
2019-02-19T09:56:07.976Z,33.20
2019-02-19T09:58:37.623Z,34.90
2019-02-19T10:01:07.523Z,34.80
2019-02-19T10:03:38.155Z,35.60
2019-02-19T10:06:07.822Z,37.20
2019-02-19T10:08:37.503Z,35.20
2019-02-19T10:11:07.266Z,34.40
2019-02-19T10:13:36.953Z,34.30
2019-02-19T10:16:06.605Z,35.70
2019-02-19T10:18:36.274Z,35.10
2019-02-19T10:21:06.001Z,35.00
2019-02-19T10:23:35.720Z,35.20
2019-02-19T10:26:05.342Z,34.70
2019-02-19T10:28:35.095Z,34.80
2019-02-19T10:31:04.746Z,35.00
2019-02-19T10:33:34.402Z,35.50
2019-02-19T10:36:04.051Z,34.30
2019-02-19T10:38:33.764Z,33.50
2019-02-19T10:41:03.509Z,33.80
2019-02-19T10:43:33.199Z,34.30
2019-02-19T10:46:02.835Z,33.70
2019-02-19T10:48:32.677Z,34.40
2019-02-19T10:51:02.380Z,34.60
2019-02-19T10:53:32.125Z,33.70
2019-02-19T10:56:01.723Z,33.80
2019-02-19T10:58:31.393Z,34.50
2019-02-19T11:01:01.104Z,32.70
2019-02-19T11:03:30.895Z,33.20
2019-02-19T11:06:00.615Z,32.00
2019-02-19T11:08:30.263Z,31.50
2019-02-19T11:10:59.996Z,31.10
2019-02-19T11:13:29.783Z,31.60
2019-02-19T11:15:59.534Z,31.40
2019-02-19T11:18:29.211Z,31.90
2019-02-19T11:20:59.113Z,31.30
2019-02-19T11:23:28.828Z,31.00
2019-02-19T11:25:58.542Z,31.80
2019-02-19T11:28:29.543Z,32.30
2019-02-19T11:30:59.371Z,32.40
2019-02-19T11:33:29.202Z,31.90
2019-02-19T11:35:58.889Z,32.80
2019-02-19T11:38:28.637Z,31.80
2019-02-19T11:40:58.267Z,32.50
2019-02-19T11:43:28.020Z,33.20
2019-02-19T11:45:57.699Z,33.40
2019-02-19T11:48:27.419Z,32.70
2019-02-19T11:50:57.042Z,32.10
2019-02-19T11:53:26.733Z,32.30
2019-02-19T11:55:56.442Z,32.70
2019-02-19T11:58:26.128Z,32.50
2019-02-19T12:00:55.780Z,32.40
2019-02-19T12:03:25.499Z,31.70
2019-02-19T12:05:55.192Z,32.50
2019-02-19T12:08:24.797Z,32.90
2019-02-19T12:10:54.487Z,32.40
2019-02-19T12:13:26.520Z,32.60
2019-02-19T12:15:56.233Z,31.90
2019-02-19T12:18:25.893Z,34.20
2019-02-19T12:20:55.553Z,32.70
2019-02-19T12:23:25.283Z,34.90
2019-02-19T12:25:55.080Z,33.40
2019-02-19T12:28:24.721Z,32.60
2019-02-19T12:30:54.412Z,33.50
2019-02-19T12:33:24.150Z,33.50
2019-02-19T12:35:53.840Z,33.20
2019-02-19T12:38:23.454Z,34.50
2019-02-19T12:40:53.189Z,32.80
2019-02-19T12:43:22.848Z,32.90
2019-02-19T12:45:52.534Z,32.70
2019-02-19T12:48:22.255Z,32.70
2019-02-19T12:50:52.105Z,32.10
2019-02-19T12:53:21.746Z,32.50
2019-02-19T12:55:51.447Z,33.70
2019-02-19T12:58:24.416Z,33.50
2019-02-19T13:00:54.129Z,33.90
2019-02-19T13:03:23.746Z,32.90
2019-02-19T13:05:54.246Z,33.20
2019-02-19T13:08:23.912Z,34.10
2019-02-19T13:10:53.704Z,33.70
2019-02-19T13:13:23.502Z,33.90
2019-02-19T13:15:53.199Z,33.80
2019-02-19T13:18:22.822Z,33.80
2019-02-19T13:20:52.688Z,34.30
2019-02-19T13:23:22.353Z,33.50
2019-02-19T13:25:52.026Z,34.20
2019-02-19T13:28:21.641Z,33.40
2019-02-19T13:30:51.349Z,34.10
2019-02-19T13:33:20.995Z,34.80
2019-02-19T13:35:50.796Z,34.80
2019-02-19T13:38:20.560Z,35.60
2019-02-19T13:40:50.281Z,35.40
2019-02-19T13:43:19.955Z,35.90
2019-02-19T13:45:49.703Z,35.30
2019-02-19T13:48:19.360Z,34.60
2019-02-19T13:50:49.087Z,35.40
2019-02-19T13:53:29.919Z,37.30
2019-02-19T13:56:01.179Z,36.90
2019-02-19T13:58:30.816Z,35.60
2019-02-19T14:01:00.554Z,37.10
2019-02-19T14:03:30.206Z,37.30
2019-02-19T14:06:00.026Z,37.10
2019-02-19T14:08:29.692Z,38.10
2019-02-19T14:10:59.338Z,37.20
2019-02-19T14:13:29.089Z,39.00
2019-02-19T14:16:26.870Z,37.10
2019-02-19T14:19:21.123Z,37.20
2019-02-19T14:22:06.828Z,38.10
2019-02-19T14:25:01.215Z,37.90
2019-02-19T14:27:46.045Z,37.00
2019-02-19T14:30:34.606Z,37.40
2019-02-19T14:33:21.339Z,38.70
2019-02-19T14:36:08.536Z,41.00
2019-02-19T14:38:50.617Z,39.20
2019-02-19T14:41:39.191Z,40.10
2019-02-19T14:44:19.216Z,40.50
2019-02-19T14:47:07.815Z,42.20
2019-02-19T14:49:56.426Z,44.60
2019-02-19T14:52:57.083Z,44.70
2019-02-19T14:55:40.288Z,44.90
2019-02-19T14:58:22.622Z,46.20
2019-02-19T15:01:26.158Z,45.90
2019-02-19T15:04:17.602Z,49.00
2019-02-19T15:07:13.781Z,47.40
2019-02-19T15:09:57.711Z,47.00
2019-02-19T15:12:55.428Z,47.80
2019-02-19T15:15:44.198Z,46.60
2019-02-19T15:18:35.598Z,46.60
2019-02-19T15:21:25.571Z,46.20
2019-02-19T15:24:23.616Z,46.30
2019-02-19T15:27:11.237Z,46.90
2019-02-19T15:29:58.454Z,45.90
2019-02-19T15:33:02.406Z,45.60
2019-02-19T15:35:56.859Z,44.60
2019-02-19T15:38:48.810Z,47.50
2019-02-19T15:41:43.620Z,45.50
2019-02-19T15:44:47.519Z,45.70
2019-02-19T15:47:36.195Z,46.10
2019-02-19T15:50:28.003Z,46.60
2019-02-19T15:53:35.027Z,47.20
2019-02-19T15:56:26.566Z,48.00
2019-02-19T15:59:13.935Z,48.40
2019-02-19T16:01:58.724Z,49.10
2019-02-19T16:04:41.615Z,49.90
2019-02-19T16:07:39.225Z,49.50
2019-02-19T16:10:40.281Z,52.60
2019-02-19T16:13:44.235Z,52.30
2019-02-19T16:16:36.040Z,51.70
2019-02-19T16:19:23.155Z,57.80
2019-02-19T16:22:06.728Z,56.30
2019-02-19T16:24:48.851Z,56.40
2019-02-19T16:27:29.347Z,58.50
2019-02-19T16:30:14.307Z,56.20
2019-02-19T16:33:01.798Z,56.60
2019-02-19T16:35:53.286Z,57.20
2019-02-19T16:39:00.185Z,58.90
2019-02-19T16:41:35.929Z,59.50
2019-02-19T16:44:42.929Z,59.90
2019-02-19T16:47:27.978Z,62.30
2019-02-19T16:50:28.849Z,68.80
2019-02-19T16:53:20.379Z,73.40
2019-02-19T16:56:07.757Z,75.30
2019-02-19T16:58:49.105Z,81.60
2019-02-19T17:01:39.603Z,92.20
2019-02-19T17:04:16.546Z,91.90
2019-02-19T17:07:02.361Z,90.70
2019-02-19T17:09:39.455Z,89.20
2019-02-19T17:12:28.616Z,86.80
2019-02-19T17:15:20.342Z,89.30
2019-02-19T17:18:18.211Z,87.30
2019-02-19T17:21:00.197Z,89.50
2019-02-19T17:23:39.040Z,94.70
2019-02-19T17:26:30.449Z,93.10
2019-02-19T17:29:17.937Z,96.20
2019-02-19T17:32:18.399Z,99.90
2019-02-19T17:34:57.625Z,99.90
2019-02-19T17:37:49.087Z,99.90
2019-02-19T17:40:55.788Z,99.90
2019-02-19T17:43:33.533Z,99.90
2019-02-19T17:46:24.887Z,99.90
2019-02-19T17:49:19.764Z,99.90
2019-02-19T17:52:17.197Z,99.90
2019-02-19T17:54:57.711Z,99.90
2019-02-19T17:57:55.494Z,99.90
2019-02-19T18:00:40.811Z,99.90
2019-02-19T18:03:29.429Z,99.90
2019-02-19T18:06:16.776Z,99.90
2019-02-19T18:09:01.662Z,99.90
2019-02-19T18:11:44.445Z,99.90
2019-02-19T18:14:33.160Z,99.90
2019-02-19T18:17:20.966Z,99.90
2019-02-19T18:19:50.812Z,99.90
2019-02-19T18:22:20.457Z,99.90
2019-02-19T18:24:50.187Z,99.90
2019-02-19T18:27:19.880Z,99.90
2019-02-19T18:29:49.634Z,99.90
2019-02-19T18:32:19.334Z,99.90
2019-02-19T18:34:48.988Z,99.90
2019-02-19T18:37:18.736Z,99.90
2019-02-19T18:39:48.419Z,99.90
2019-02-19T18:42:18.239Z,99.90
2019-02-19T18:44:47.929Z,99.90
2019-02-19T18:47:17.718Z,99.90
2019-02-19T18:49:47.381Z,99.90
2019-02-19T18:52:17.104Z,99.90
2019-02-19T18:54:46.786Z,99.90
2019-02-19T18:57:16.576Z,99.90
2019-02-19T18:59:46.323Z,99.90
2019-02-19T19:02:16.115Z,99.90
2019-02-19T19:04:45.798Z,99.90
2019-02-19T19:07:15.486Z,99.90
2019-02-19T19:09:45.172Z,99.90
2019-02-19T19:12:16.821Z,99.90
2019-02-19T19:14:46.489Z,99.90
2019-02-19T19:17:16.202Z,99.90
2019-02-19T19:19:49.038Z,99.90
2019-02-19T19:22:18.724Z,99.90
2019-02-19T19:24:48.638Z,99.90
2019-02-19T19:27:18.483Z,99.90
2019-02-19T19:29:48.221Z,99.90
2019-02-19T19:32:17.908Z,99.90
2019-02-19T19:34:47.610Z,99.90
2019-02-19T19:37:17.541Z,99.90
2019-02-19T19:39:47.224Z,99.90
2019-02-19T19:42:16.967Z,99.90
2019-02-19T19:44:46.735Z,99.90
2019-02-19T19:47:16.927Z,99.90
2019-02-19T19:49:46.765Z,99.90
2019-02-19T19:52:16.549Z,99.90
2019-02-19T19:54:46.272Z,99.90
2019-02-19T19:57:15.981Z,99.90
2019-02-19T19:59:45.750Z,99.90
2019-02-19T20:02:17.883Z,99.90
2019-02-19T20:04:46.816Z,99.90
2019-02-19T20:07:16.598Z,99.90
2019-02-19T20:09:46.404Z,99.90
2019-02-19T20:12:16.323Z,99.90
2019-02-19T20:14:46.106Z,99.90
2019-02-19T20:17:15.874Z,99.90
2019-02-19T20:19:45.575Z,99.90
2019-02-19T20:22:15.335Z,99.90
2019-02-19T20:24:45.142Z,99.90
2019-02-19T20:27:14.845Z,99.90
2019-02-19T20:29:46.363Z,99.90
2019-02-19T20:32:16.126Z,99.90
2019-02-19T20:34:47.179Z,99.90
2019-02-19T20:37:16.957Z,99.90
2019-02-19T20:39:46.739Z,99.90
2019-02-19T20:42:16.455Z,99.90
2019-02-19T20:44:46.193Z,99.90
2019-02-19T20:47:16.044Z,99.90
2019-02-19T20:49:45.811Z,99.90
2019-02-19T20:52:15.536Z,99.90
2019-02-19T20:54:45.320Z,99.90
2019-02-19T20:57:15.026Z,99.90
2019-02-19T20:59:44.753Z,99.90
2019-02-19T21:02:14.761Z,99.90
2019-02-19T21:04:44.493Z,99.90
2019-02-19T21:07:14.192Z,99.90
2019-02-19T21:09:47.196Z,99.90
2019-02-19T21:12:16.654Z,99.90
2019-02-19T21:14:47.434Z,99.90
2019-02-19T21:17:17.214Z,99.90
2019-02-19T21:19:47.327Z,99.90
2019-02-19T21:22:17.054Z,99.90
2019-02-19T21:24:46.900Z,99.90
2019-02-19T21:27:16.609Z,99.90
2019-02-19T21:29:46.330Z,99.90
2019-02-19T21:32:16.065Z,99.90
2019-02-19T21:34:45.841Z,99.90
2019-02-19T21:37:15.529Z,99.90
2019-02-19T21:39:45.337Z,99.90
2019-02-19T21:42:15.086Z,99.90
2019-02-19T21:44:44.837Z,99.90
2019-02-19T21:47:14.579Z,99.90
2019-02-19T21:49:44.308Z,99.90
2019-02-19T21:52:13.974Z,99.90
2019-02-19T21:54:43.689Z,99.90
2019-02-19T21:57:13.322Z,99.90
2019-02-19T21:59:43.049Z,99.90
2019-02-19T22:02:16.352Z,99.90
2019-02-19T22:04:44.208Z,99.90
2019-02-19T22:07:13.913Z,99.90
2019-02-19T22:09:43.625Z,99.90
2019-02-19T22:12:13.353Z,99.90
2019-02-19T22:14:43.114Z,99.90
2019-02-19T22:17:12.824Z,99.90
2019-02-19T22:19:42.786Z,99.90
2019-02-19T22:22:14.810Z,99.90
2019-02-19T22:24:44.584Z,99.90
2019-02-19T22:27:14.362Z,99.90
2019-02-19T22:29:44.150Z,99.90
2019-02-19T22:32:15.522Z,99.90
2019-02-19T22:34:45.329Z,99.90
2019-02-19T22:37:15.030Z,99.90
2019-02-19T22:39:44.687Z,99.90
2019-02-19T22:42:14.411Z,99.90
2019-02-19T22:44:44.062Z,99.90
2019-02-19T22:47:13.864Z,99.90
2019-02-19T22:49:43.562Z,99.90
2019-02-19T22:52:13.323Z,99.90
2019-02-19T22:55:01.939Z,99.90
2019-02-19T22:57:31.666Z,99.90
2019-02-19T23:00:01.393Z,99.90
2019-02-19T23:02:32.492Z,99.90
2019-02-19T23:05:02.825Z,99.90
2019-02-19T23:07:32.537Z,99.90
2019-02-19T23:10:02.200Z,99.90
2019-02-19T23:12:31.924Z,99.90
2019-02-19T23:15:01.570Z,99.90
2019-02-19T23:17:31.347Z,99.90
2019-02-19T23:20:01.034Z,99.90
2019-02-19T23:22:30.710Z,99.90
2019-02-19T23:25:00.380Z,99.90
2019-02-19T23:27:30.094Z,99.90
2019-02-19T23:29:59.878Z,99.90
2019-02-19T23:32:29.708Z,99.90
2019-02-19T23:35:16.884Z,99.90
2019-02-19T23:37:46.686Z,99.90
2019-02-19T23:40:16.372Z,99.90
2019-02-19T23:42:46.118Z,99.90
2019-02-19T23:45:15.763Z,99.90
2019-02-19T23:47:45.495Z,99.90
2019-02-19T23:50:15.159Z,99.90
2019-02-19T23:52:44.862Z,99.90
2019-02-19T23:55:14.597Z,99.90
2019-02-19T23:57:44.378Z,99.90
